Time;durP1;ratioP1;P1;durP2;ratioP2;P2;SDS_P1;SDS_P2;PMS_P1;PMS_P2;Temp;Humidity;BMP_temperature;BMP_pressure;BME280_temperature;BME280_humidity;BME280_pressure;Samples;Min_cycle;Max_cycle;Signal;HPM_P1;HPM_P2
2021/05/25 00:01:40;;;;;;;27.02;16.40;;;;;;;;;;4980710;28;20456;-70
2021/05/25 00:04:07;;;;;;;18.73;14.02;;;;;;;;;;4989804;28;20034;-69
2021/05/25 00:06:34;;;;;;;27.52;15.75;;;;;;;;;;4990971;28;20033;-70
2021/05/25 00:09:01;;;;;;;23.52;16.23;;;;;;;;;;4991048;28;20057;-70
2021/05/25 00:11:28;;;;;;;20.60;13.48;;;;;;;;;;4986706;28;20030;-69
2021/05/25 00:13:55;;;;;;;25.42;16.77;;;;;;;;;;4989865;28;20022;-70
2021/05/25 00:16:23;;;;;;;23.80;14.73;;;;;;;;;;4982264;28;20026;-70
2021/05/25 00:18:50;;;;;;;19.48;13.57;;;;;;;;;;4989492;28;20026;-69
2021/05/25 00:21:17;;;;;;;20.08;13.55;;;;;;;;;;4984879;28;20027;-70
2021/05/25 00:23:44;;;;;;;16.83;11.70;;;;;;;;;;4991856;28;20121;-69
2021/05/25 00:26:11;;;;;;;18.45;11.18;;;;;;;;;;4992171;28;20023;-69
2021/05/25 00:28:38;;;;;;;16.98;11.90;;;;;;;;;;4987400;28;20426;-69
2021/05/25 00:31:06;;;;;;;22.38;13.70;;;;;;;;;;5000955;28;20022;-70
2021/05/25 00:33:33;;;;;;;21.33;13.35;;;;;;;;;;4989809;28;20042;-70
2021/05/25 00:36:00;;;;;;;17.05;12.40;;;;;;;;;;4993646;28;20522;-69
2021/05/25 00:38:27;;;;;;;18.30;13.25;;;;;;;;;;4994495;28;20046;-70
2021/05/25 00:40:54;;;;;;;21.88;12.38;;;;;;;;;;4996697;28;20506;-70
2021/05/25 00:43:21;;;;;;;19.38;12.32;;;;;;;;;;4995084;28;20092;-70
2021/05/25 00:45:48;;;;;;;18.42;11.73;;;;;;;;;;4975447;28;20031;-70
2021/05/25 00:48:16;;;;;;;15.35;10.43;;;;;;;;;;4989925;28;20033;-70
2021/05/25 00:50:43;;;;;;;18.63;10.85;;;;;;;;;;4995603;28;20026;-70
2021/05/25 00:53:10;;;;;;;19.90;11.10;;;;;;;;;;4992349;28;20507;-70
2021/05/25 00:55:38;;;;;;;17.73;11.55;;;;;;;;;;4992314;28;20069;-70
2021/05/25 00:58:06;;;;;;;18.00;10.07;;;;;;;;;;4991461;28;20109;-70
2021/05/25 01:00:51;;;;;;;15.60;8.95;;;;;;;;;;4995050;28;20030;-70
2021/05/25 01:03:23;;;;;;;15.88;10.80;;;;;;;;;;4992860;28;20039;-70
2021/05/25 01:05:51;;;;;;;11.07;8.68;;;;;;;;;;4975107;28;20026;-70
2021/05/25 01:08:18;;;;;;;15.27;8.95;;;;;;;;;;4990254;28;20026;-70
2021/05/25 01:10:52;;;;;;;13.68;8.77;;;;;;;;;;4993352;28;20438;-70
2021/05/25 01:13:25;;;;;;;15.73;9.43;;;;;;;;;;4989721;28;20415;-70
2021/05/25 01:15:53;;;;;;;11.57;5.68;;;;;;;;;;4985097;28;20018;-69
2021/05/25 01:18:21;;;;;;;8.30;4.50;;;;;;;;;;4991599;28;20027;-70
2021/05/25 01:20:48;;;;;;;10.25;5.05;;;;;;;;;;4995464;28;20019;-70
2021/05/25 01:23:16;;;;;;;6.22;3.58;;;;;;;;;;4992184;28;20407;-70
2021/05/25 01:25:45;;;;;;;8.25;3.13;;;;;;;;;;4993408;28;20026;-70
2021/05/25 01:28:13;;;;;;;4.60;1.40;;;;;;;;;;4993698;28;20038;-70
2021/05/25 01:30:42;;;;;;;6.18;1.48;;;;;;;;;;4994441;28;20061;-70
2021/05/25 01:33:09;;;;;;;9.65;2.58;;;;;;;;;;4989531;28;20054;-70
2021/05/25 01:35:37;;;;;;;5.43;1.75;;;;;;;;;;4979473;28;20047;-70
2021/05/25 01:38:05;;;;;;;5.70;1.08;;;;;;;;;;4985476;28;20459;-70
2021/05/25 01:40:32;;;;;;;3.92;1.10;;;;;;;;;;4994967;28;20037;-70
2021/05/25 01:43:00;;;;;;;6.15;0.80;;;;;;;;;;4993698;28;20101;-70
2021/05/25 01:45:29;;;;;;;3.83;0.90;;;;;;;;;;4995406;28;20116;-70
2021/05/25 01:47:56;;;;;;;6.18;0.50;;;;;;;;;;4989953;28;20105;-69
2021/05/25 01:50:25;;;;;;;2.42;0.50;;;;;;;;;;4995001;28;20030;-70
2021/05/25 01:52:59;;;;;;;5.93;0.50;;;;;;;;;;4993069;28;20018;-69
2021/05/25 01:55:37;;;;;;;3.58;0.35;;;;;;;;;;4994971;28;20105;-70
2021/05/25 01:58:09;;;;;;;2.22;0.20;;;;;;;;;;4991575;28;20404;-70
2021/05/25 02:00:37;;;;;;;1.98;0.40;;;;;;;;;;4993197;28;20034;-70
2021/05/25 02:03:05;;;;;;;2.05;0.35;;;;;;;;;;4984842;28;20069;-70
2021/05/25 02:05:32;;;;;;;1.75;0.60;;;;;;;;;;4993626;28;20019;-70
2021/05/25 02:08:00;;;;;;;2.97;0.50;;;;;;;;;;4992886;28;20030;-70
2021/05/25 02:10:32;;;;;;;3.47;0.57;;;;;;;;;;4994691;28;20022;-70
2021/05/25 02:13:01;;;;;;;3.80;0.40;;;;;;;;;;4991789;28;20037;-70
2021/05/25 02:15:28;;;;;;;3.65;0.57;;;;;;;;;;4976029;28;20169;-71
2021/05/25 02:17:56;;;;;;;2.65;0.50;;;;;;;;;;4993404;28;20034;-71
2021/05/25 02:20:23;;;;;;;2.15;0.50;;;;;;;;;;4994193;28;20026;-70
2021/05/25 02:22:50;;;;;;;1.83;0.35;;;;;;;;;;4992382;28;20034;-70
2021/05/25 02:25:17;;;;;;;4.32;0.70;;;;;;;;;;4994238;28;20022;-70
2021/05/25 02:27:44;;;;;;;4.72;0.85;;;;;;;;;;4985102;28;20023;-70
2021/05/25 02:30:12;;;;;;;4.10;1.13;;;;;;;;;;4994494;28;20080;-70
2021/05/25 02:32:39;;;;;;;8.05;1.75;;;;;;;;;;4986964;28;20427;-70
2021/05/25 02:35:06;;;;;;;3.30;0.70;;;;;;;;;;4987797;28;20018;-71
2021/05/25 02:37:34;;;;;;;1.02;0.15;;;;;;;;;;4984420;28;20055;-69
2021/05/25 02:40:02;;;;;;;2.63;0.50;;;;;;;;;;4992554;28;20813;-70
2021/05/25 02:42:29;;;;;;;3.45;0.45;;;;;;;;;;4990564;28;20030;-70
2021/05/25 02:44:56;;;;;;;2.28;0.30;;;;;;;;;;4986977;28;20478;-70
2021/05/25 02:47:23;;;;;;;4.97;1.10;;;;;;;;;;4991138;28;20046;-70
2021/05/25 02:49:50;;;;;;;1.85;0.30;;;;;;;;;;4988824;28;20468;-70
2021/05/25 02:52:18;;;;;;;3.47;1.08;;;;;;;;;;4992073;28;20059;-69
2021/05/25 02:54:45;;;;;;;2.55;0.50;;;;;;;;;;4993817;28;20114;-70
2021/05/25 02:57:12;;;;;;;1.40;0.13;;;;;;;;;;4991763;28;20530;-70
2021/05/25 02:59:39;;;;;;;4.90;0.30;;;;;;;;;;4991262;28;20121;-70
2021/05/25 03:02:06;;;;;;;1.90;0.32;;;;;;;;;;4991004;28;20033;-70
2021/05/25 03:04:33;;;;;;;1.75;0.40;;;;;;;;;;4991637;28;20029;-70
2021/05/25 03:07:00;;;;;;;1.75;0.52;;;;;;;;;;4991238;28;20041;-70
2021/05/25 03:09:29;;;;;;;1.80;0.50;;;;;;;;;;4992422;28;20378;-70
2021/05/25 03:11:56;;;;;;;3.25;0.32;;;;;;;;;;4991581;28;20063;-71
2021/05/25 03:14:24;;;;;;;1.73;0.40;;;;;;;;;;4991448;28;20015;-70
2021/05/25 03:16:51;;;;;;;2.60;1.02;;;;;;;;;;4991096;28;20077;-71
2021/05/25 03:19:18;;;;;;;3.92;0.57;;;;;;;;;;4991350;28;20109;-71
2021/05/25 03:21:45;;;;;;;3.33;0.60;;;;;;;;;;4990335;28;20030;-70
2021/05/25 03:24:12;;;;;;;1.30;0.40;;;;;;;;;;4984026;28;20022;-70
2021/05/25 03:26:40;;;;;;;3.63;0.55;;;;;;;;;;4989740;28;20022;-70
2021/05/25 03:29:07;;;;;;;2.47;0.50;;;;;;;;;;4992849;28;20018;-70
2021/05/25 03:31:35;;;;;;;4.00;1.10;;;;;;;;;;4989000;28;20046;-70
2021/05/25 03:34:03;;;;;;;4.30;0.68;;;;;;;;;;4984315;28;20033;-71
2021/05/25 03:36:30;;;;;;;2.00;0.35;;;;;;;;;;4990124;28;20050;-71
2021/05/25 03:38:57;;;;;;;3.40;0.50;;;;;;;;;;4989753;28;20029;-70
2021/05/25 03:41:25;;;;;;;3.72;0.60;;;;;;;;;;4974042;28;20026;-71
2021/05/25 03:43:52;;;;;;;6.13;0.52;;;;;;;;;;4992285;28;20026;-71
2021/05/25 03:46:19;;;;;;;2.95;0.98;;;;;;;;;;4993460;28;20034;-71
2021/05/25 03:48:46;;;;;;;5.28;0.75;;;;;;;;;;4991935;28;20114;-71
2021/05/25 03:51:13;;;;;;;4.38;0.50;;;;;;;;;;4990581;28;20053;-72
2021/05/25 03:53:40;;;;;;;2.70;0.50;;;;;;;;;;4991568;28;20062;-72
2021/05/25 03:58:50;;;;;;;7.25;0.73;;;;;;;;;;4991495;28;20036;-71
2021/05/25 04:01:25;;;;;;;7.20;1.40;;;;;;;;;;4993097;28;20066;-73
2021/05/25 04:03:56;;;;;;;6.10;1.55;;;;;;;;;;4983999;28;20030;-71
2021/05/25 04:06:24;;;;;;;9.73;1.63;;;;;;;;;;4997056;28;20364;-72
2021/05/25 04:08:51;;;;;;;8.70;2.35;;;;;;;;;;5002770;28;20025;-72
2021/05/25 04:11:18;;;;;;;6.57;1.25;;;;;;;;;;4993060;28;20054;-71
2021/05/25 04:13:45;;;;;;;7.78;0.77;;;;;;;;;;5004410;28;20041;-72
2021/05/25 04:16:14;;;;;;;3.58;0.90;;;;;;;;;;4985350;28;20510;-72
2021/05/25 04:18:42;;;;;;;6.70;1.40;;;;;;;;;;4995366;28;20118;-72
2021/05/25 04:21:10;;;;;;;5.60;1.02;;;;;;;;;;4995539;28;20023;-71
2021/05/25 04:23:38;;;;;;;6.22;1.10;;;;;;;;;;5001323;28;20030;-72
2021/05/25 04:26:05;;;;;;;9.32;1.70;;;;;;;;;;4989225;28;20084;-72
2021/05/25 04:28:32;;;;;;;3.22;0.73;;;;;;;;;;4984970;28;20030;-72
2021/05/25 04:30:59;;;;;;;6.90;1.08;;;;;;;;;;4993308;28;20081;-71
2021/05/25 04:33:26;;;;;;;10.45;1.52;;;;;;;;;;4970506;28;20659;-71
2021/05/25 04:35:54;;;;;;;6.38;0.85;;;;;;;;;;4988774;28;20081;-71
2021/05/25 04:38:21;;;;;;;4.28;1.00;;;;;;;;;;4987411;28;20027;-72
2021/05/25 04:40:48;;;;;;;5.78;0.95;;;;;;;;;;4988298;28;20105;-72
2021/05/25 04:43:15;;;;;;;5.90;0.80;;;;;;;;;;4992658;28;20038;-72
2021/05/25 04:45:44;;;;;;;4.93;1.15;;;;;;;;;;4979484;28;20049;-71
2021/05/25 04:48:12;;;;;;;7.10;1.17;;;;;;;;;;4988190;28;20019;-72
2021/05/25 04:50:40;;;;;;;9.10;1.30;;;;;;;;;;4991559;28;20029;-72
2021/05/25 04:53:07;;;;;;;6.90;1.35;;;;;;;;;;4988188;28;20118;-72
2021/05/25 04:55:35;;;;;;;9.00;1.48;;;;;;;;;;4990296;28;20026;-72
2021/05/25 04:58:02;;;;;;;6.78;1.02;;;;;;;;;;4985995;28;20033;-71
2021/05/25 05:00:29;;;;;;;7.25;0.88;;;;;;;;;;4978837;28;20097;-72
2021/05/25 05:02:57;;;;;;;5.30;0.95;;;;;;;;;;4981706;28;20030;-72
2021/05/25 05:05:25;;;;;;;6.57;1.17;;;;;;;;;;4979864;28;20026;-73
2021/05/25 05:07:52;;;;;;;4.45;0.90;;;;;;;;;;4985070;28;20129;-72
2021/05/25 05:10:19;;;;;;;6.60;1.05;;;;;;;;;;4988877;28;20026;-72
2021/05/25 05:12:47;;;;;;;6.40;1.30;;;;;;;;;;4980467;28;20553;-73
2021/05/25 05:15:15;;;;;;;6.68;0.70;;;;;;;;;;4977144;28;20097;-72
2021/05/25 05:17:42;;;;;;;8.45;1.08;;;;;;;;;;4984557;28;20080;-72
2021/05/25 05:20:11;;;;;;;7.05;1.02;;;;;;;;;;4989952;28;20479;-73
2021/05/25 05:22:39;;;;;;;11.85;1.02;;;;;;;;;;4988450;28;20030;-72
2021/05/25 05:25:06;;;;;;;9.65;1.45;;;;;;;;;;4994924;28;20038;-72
2021/05/25 05:27:33;;;;;;;10.45;1.45;;;;;;;;;;4993489;28;20030;-72
2021/05/25 05:30:01;;;;;;;6.93;0.90;;;;;;;;;;4995110;28;20029;-72
2021/05/25 05:32:28;;;;;;;6.95;1.48;;;;;;;;;;4993138;28;20022;-73
2021/05/25 05:34:55;;;;;;;3.45;0.90;;;;;;;;;;4995067;28;20057;-73
2021/05/25 05:37:22;;;;;;;9.50;1.48;;;;;;;;;;4993827;28;20046;-72
2021/05/25 05:39:49;;;;;;;6.15;0.73;;;;;;;;;;4992568;28;20110;-72
2021/05/25 05:42:16;;;;;;;7.40;1.40;;;;;;;;;;4989523;28;20106;-72
2021/05/25 05:44:44;;;;;;;4.68;1.08;;;;;;;;;;4994731;28;20422;-72
2021/05/25 05:47:11;;;;;;;4.25;0.93;;;;;;;;;;4994188;28;20085;-73
2021/05/25 05:49:39;;;;;;;8.93;1.30;;;;;;;;;;4995122;28;20061;-72
2021/05/25 05:52:06;;;;;;;5.32;1.08;;;;;;;;;;4992123;28;20030;-73
2021/05/25 05:54:33;;;;;;;7.93;1.00;;;;;;;;;;4991543;28;20030;-73
2021/05/25 05:57:00;;;;;;;6.43;0.90;;;;;;;;;;4991669;28;20035;-73
2021/05/25 05:59:28;;;;;;;3.83;1.45;;;;;;;;;;4989324;28;20105;-73
2021/05/25 06:01:55;;;;;;;4.82;1.38;;;;;;;;;;4988576;28;20035;-73
2021/05/25 06:04:22;;;;;;;4.53;1.05;;;;;;;;;;4993909;28;20025;-73
2021/05/25 06:06:49;;;;;;;6.80;1.02;;;;;;;;;;4992316;28;20075;-73
2021/05/25 06:09:16;;;;;;;10.30;1.00;;;;;;;;;;4984250;28;20089;-73
2021/05/25 06:11:51;;;;;;;7.22;1.42;;;;;;;;;;4994357;28;20554;-73
2021/05/25 06:14:18;;;;;;;7.53;0.88;;;;;;;;;;4972078;28;20064;-73
2021/05/25 06:16:46;;;;;;;7.53;1.27;;;;;;;;;;4990549;28;20042;-73
2021/05/25 06:19:13;;;;;;;6.55;0.98;;;;;;;;;;4992816;28;20026;-73
2021/05/25 06:21:40;;;;;;;3.38;0.82;;;;;;;;;;4991791;28;20022;-73
2021/05/25 06:24:07;;;;;;;4.75;1.52;;;;;;;;;;4993851;28;20034;-73
2021/05/25 06:26:34;;;;;;;6.03;1.50;;;;;;;;;;4993100;28;20022;-73
2021/05/25 06:29:02;;;;;;;6.07;1.35;;;;;;;;;;4994105;28;20033;-73
2021/05/25 06:31:29;;;;;;;11.18;1.88;;;;;;;;;;4991949;28;20018;-73
2021/05/25 06:33:56;;;;;;;7.95;2.97;;;;;;;;;;4983186;28;20050;-73
2021/05/25 06:36:23;;;;;;;9.88;3.90;;;;;;;;;;4993774;28;20632;-73
2021/05/25 06:38:50;;;;;;;10.48;5.03;;;;;;;;;;4976986;28;20031;-73
2021/05/25 06:41:18;;;;;;;8.50;2.70;;;;;;;;;;4974548;28;20030;-73
2021/05/25 06:43:45;;;;;;;10.77;3.13;;;;;;;;;;4990671;28;20491;-73
2021/05/25 06:46:12;;;;;;;8.10;1.73;;;;;;;;;;4991840;28;20130;-73
2021/05/25 06:48:39;;;;;;;7.80;1.83;;;;;;;;;;4989572;28;20102;-73
2021/05/25 06:51:07;;;;;;;7.32;1.92;;;;;;;;;;4964762;28;20034;-74
2021/05/25 06:53:37;;;;;;;7.32;1.30;;;;;;;;;;4993145;28;20387;-73
2021/05/25 06:56:05;;;;;;;6.60;1.35;;;;;;;;;;4993185;28;20026;-73
2021/05/25 06:58:32;;;;;;;6.78;1.45;;;;;;;;;;4992735;28;20026;-74
2021/05/25 07:01:00;;;;;;;14.68;1.95;;;;;;;;;;4993796;28;20475;-74
2021/05/25 07:03:27;;;;;;;9.32;1.25;;;;;;;;;;4992237;28;20034;-73
2021/05/25 07:05:54;;;;;;;7.43;2.05;;;;;;;;;;4993797;28;20375;-73
2021/05/25 07:08:21;;;;;;;7.70;1.45;;;;;;;;;;4987912;28;20030;-73
2021/05/25 07:10:48;;;;;;;7.30;1.48;;;;;;;;;;4986328;28;20501;-73
2021/05/25 07:13:15;;;;;;;9.27;1.27;;;;;;;;;;4991439;28;20030;-73
2021/05/25 07:15:43;;;;;;;8.57;1.60;;;;;;;;;;4990108;28;20022;-72
2021/05/25 07:18:10;;;;;;;11.15;1.95;;;;;;;;;;4969981;28;20052;-73
2021/05/25 07:20:37;;;;;;;9.15;2.13;;;;;;;;;;4991066;28;20025;-73
2021/05/25 07:23:06;;;;;;;7.05;1.73;;;;;;;;;;4991026;28;20033;-73
2021/05/25 07:25:33;;;;;;;10.27;2.40;;;;;;;;;;4993081;28;20608;-73
2021/05/25 07:28:00;;;;;;;9.85;2.00;;;;;;;;;;4991203;28;20030;-73
2021/05/25 07:30:27;;;;;;;10.38;1.63;;;;;;;;;;4992642;28;20022;-73
2021/05/25 07:32:54;;;;;;;7.63;1.77;;;;;;;;;;4988867;28;20038;-72
2021/05/25 07:35:21;;;;;;;9.35;1.38;;;;;;;;;;4987747;28;20054;-72
2021/05/25 07:37:49;;;;;;;14.35;2.38;;;;;;;;;;4987703;28;20080;-74
2021/05/25 07:40:17;;;;;;;10.93;1.88;;;;;;;;;;4992898;28;20023;-73
2021/05/25 07:42:45;;;;;;;7.68;1.92;;;;;;;;;;4989201;28;20118;-74
2021/05/25 07:45:12;;;;;;;7.35;1.35;;;;;;;;;;4986306;28;20034;-73
2021/05/25 07:47:40;;;;;;;7.93;1.58;;;;;;;;;;4988716;28;20070;-73
2021/05/25 07:50:14;;;;;;;10.77;2.17;;;;;;;;;;4991273;28;20054;-73
2021/05/25 07:52:42;;;;;;;10.60;2.40;;;;;;;;;;4990063;28;20027;-72
2021/05/25 07:55:09;;;;;;;7.43;1.73;;;;;;;;;;4989937;28;20026;-73
2021/05/25 07:57:37;;;;;;;6.50;1.58;;;;;;;;;;4989219;28;20022;-73
2021/05/25 08:00:10;;;;;;;9.27;2.05;;;;;;;;;;4988593;28;20023;-72
2021/05/25 08:02:38;;;;;;;8.10;2.28;;;;;;;;;;4989094;28;20022;-72
2021/05/25 08:05:05;;;;;;;7.10;1.52;;;;;;;;;;4992064;28;20029;-72
2021/05/25 08:07:32;;;;;;;9.23;2.40;;;;;;;;;;4990488;28;20266;-72
2021/05/25 08:10:00;;;;;;;7.18;2.03;;;;;;;;;;4992011;28;20472;-72
2021/05/25 08:12:27;;;;;;;7.40;2.17;;;;;;;;;;4988880;28;20038;-74
2021/05/25 08:14:55;;;;;;;7.03;1.85;;;;;;;;;;4988266;28;20037;-73
2021/05/25 08:17:34;;;;;;;2.95;1.42;;;;;;;;;;4983310;28;20034;-72
2021/05/25 08:20:19;;;;;;;6.10;1.90;;;;;;;;;;4992890;28;20463;-73
2021/05/25 08:22:50;;;;;;;6.35;2.33;;;;;;;;;;4990226;28;20041;-73
2021/05/25 08:25:18;;;;;;;6.90;2.47;;;;;;;;;;4997269;28;20033;-74
2021/05/25 08:27:47;;;;;;;4.53;2.38;;;;;;;;;;4997829;28;20391;-73
2021/05/25 08:30:15;;;;;;;12.07;2.70;;;;;;;;;;5001356;28;20030;-73
2021/05/25 08:32:42;;;;;;;5.22;1.83;;;;;;;;;;4990348;28;20538;-73
2021/05/25 08:35:10;;;;;;;8.30;2.53;;;;;;;;;;4989554;28;20062;-73
2021/05/25 08:37:37;;;;;;;9.95;2.58;;;;;;;;;;4989804;28;20070;-72
2021/05/25 08:40:08;;;;;;;7.45;1.92;;;;;;;;;;4992166;28;20030;-73
2021/05/25 08:42:37;;;;;;;7.47;1.80;;;;;;;;;;4991042;28;20030;-73
2021/05/25 08:45:09;;;;;;;8.95;1.75;;;;;;;;;;4991500;28;20027;-73
2021/05/25 08:47:37;;;;;;;7.85;2.17;;;;;;;;;;4988587;28;20110;-72
2021/05/25 08:50:05;;;;;;;8.05;2.33;;;;;;;;;;4990000;28;20048;-73
2021/05/25 08:52:32;;;;;;;5.15;1.60;;;;;;;;;;4990029;28;20030;-73
2021/05/25 08:54:59;;;;;;;10.80;1.92;;;;;;;;;;4991765;28;20054;-73
2021/05/25 08:57:27;;;;;;;7.15;1.60;;;;;;;;;;4992861;28;20110;-72
2021/05/25 08:59:54;;;;;;;6.05;1.67;;;;;;;;;;4993185;28;20045;-73
2021/05/25 09:02:21;;;;;;;7.78;1.30;;;;;;;;;;4992775;28;20023;-72
2021/05/25 09:04:57;;;;;;;6.53;2.28;;;;;;;;;;4994326;28;20506;-73
2021/05/25 09:07:36;;;;;;;6.55;1.95;;;;;;;;;;4994171;28;20046;-72
2021/05/25 09:10:08;;;;;;;4.60;1.15;;;;;;;;;;4995372;28;20375;-72
2021/05/25 09:12:40;;;;;;;5.32;0.88;;;;;;;;;;4987989;28;20547;-72
2021/05/25 09:15:08;;;;;;;6.43;2.38;;;;;;;;;;4993125;28;20023;-73
2021/05/25 09:17:35;;;;;;;4.68;1.30;;;;;;;;;;4974591;28;20026;-72
2021/05/25 09:20:04;;;;;;;4.95;1.25;;;;;;;;;;4995084;28;20026;-72
2021/05/25 09:22:34;;;;;;;5.53;1.80;;;;;;;;;;4992136;28;20049;-72
2021/05/25 09:25:24;;;;;;;7.28;1.95;;;;;;;;;;4994850;28;20041;-73
2021/05/25 09:30:48;;;;;;;5.57;1.90;;;;;;;;;;4978129;28;20061;-73
2021/05/25 09:33:17;;;;;;;9.60;2.28;;;;;;;;;;4992278;28;20110;-72
2021/05/25 09:35:47;;;;;;;4.28;1.38;;;;;;;;;;4991981;28;20050;-72
2021/05/25 09:38:19;;;;;;;4.82;1.00;;;;;;;;;;4991848;28;20082;-72
2021/05/25 09:40:48;;;;;;;2.80;1.02;;;;;;;;;;4993786;28;20054;-72
2021/05/25 09:43:16;;;;;;;3.90;0.90;;;;;;;;;;4991639;28;20501;-72
2021/05/25 09:45:56;;;;;;;2.72;0.80;;;;;;;;;;4994411;28;20502;-72
2021/05/25 09:48:23;;;;;;;5.97;1.23;;;;;;;;;;4993302;28;20053;-72
2021/05/25 09:50:51;;;;;;;4.40;0.95;;;;;;;;;;4994246;28;20023;-72
2021/05/25 09:53:21;;;;;;;3.65;0.80;;;;;;;;;;4993111;28;20058;-72
2021/05/25 09:55:53;;;;;;;2.47;0.80;;;;;;;;;;4994652;28;20026;-72
2021/05/25 09:58:20;;;;;;;3.55;0.90;;;;;;;;;;4990511;28;21036;-71
2021/05/25 10:00:48;;;;;;;3.17;1.10;;;;;;;;;;4992992;28;20026;-72
2021/05/25 10:03:16;;;;;;;5.45;1.25;;;;;;;;;;4991214;28;20025;-72
2021/05/25 10:05:48;;;;;;;1.88;1.13;;;;;;;;;;4993424;28;20460;-72
2021/05/25 10:08:16;;;;;;;5.00;1.25;;;;;;;;;;4975698;28;20034;-72
2021/05/25 10:10:44;;;;;;;4.00;0.98;;;;;;;;;;4994377;28;20085;-72
2021/05/25 10:13:11;;;;;;;5.50;1.50;;;;;;;;;;4973563;28;20043;-71
2021/05/25 10:15:39;;;;;;;3.15;0.90;;;;;;;;;;4994677;28;20076;-71
2021/05/25 10:20:33;;;;;;;3.58;0.60;;;;;;;;;;4993635;28;20031;-72
2021/05/25 10:23:01;;;;;;;2.67;0.60;;;;;;;;;;4994092;28;20029;-72
2021/05/25 10:25:33;;;;;;;2.03;0.98;;;;;;;;;;4989311;28;20034;-72
2021/05/25 10:28:01;;;;;;;3.50;0.85;;;;;;;;;;4975856;28;20027;-72
2021/05/25 10:30:28;;;;;;;3.80;1.20;;;;;;;;;;4988613;28;20022;-72
2021/05/25 10:33:07;;;;;;;4.05;0.57;;;;;;;;;;4976474;28;20136;-72
2021/05/25 10:35:51;;;;;;;3.50;0.80;;;;;;;;;;4993762;28;20022;-73
2021/05/25 10:38:19;;;;;;;3.77;0.70;;;;;;;;;;4990152;28;20057;-72
2021/05/25 10:40:47;;;;;;;2.17;0.70;;;;;;;;;;4976623;28;20264;-72
2021/05/25 10:43:33;;;;;;;3.20;0.60;;;;;;;;;;4994288;28;20030;-72
2021/05/25 10:46:13;;;;;;;3.25;0.73;;;;;;;;;;4976304;28;20041;-71
2021/05/25 10:48:50;;;;;;;4.55;1.20;;;;;;;;;;4994371;28;20025;-72
2021/05/25 10:51:17;;;;;;;3.55;1.10;;;;;;;;;;4994257;28;20030;-71
2021/05/25 10:53:44;;;;;;;2.67;1.15;;;;;;;;;;4976183;28;20088;-71
2021/05/25 10:56:38;;;;;;;3.42;1.20;;;;;;;;;;4993163;28;20025;-72
2021/05/25 10:59:08;;;;;;;5.32;1.50;;;;;;;;;;4955927;28;20042;-72
2021/05/25 11:01:37;;;;;;;4.35;0.88;;;;;;;;;;4986684;28;20045;-72
2021/05/25 11:04:11;;;;;;;5.40;1.50;;;;;;;;;;4993092;28;20034;-72
2021/05/25 11:06:38;;;;;;;7.88;1.40;;;;;;;;;;4990667;28;20114;-71
2021/05/25 11:09:26;;;;;;;4.72;1.10;;;;;;;;;;4990089;28;20101;-71
2021/05/25 11:12:12;;;;;;;5.63;1.10;;;;;;;;;;4992948;28;20376;-71
2021/05/25 11:14:58;;;;;;;5.38;0.88;;;;;;;;;;4991573;28;20030;-71
2021/05/25 11:17:33;;;;;;;5.95;1.35;;;;;;;;;;4992519;28;20030;-72
2021/05/25 11:20:21;;;;;;;2.80;0.80;;;;;;;;;;4986913;28;20085;-71
2021/05/25 11:22:49;;;;;;;6.45;1.60;;;;;;;;;;4990901;28;20023;-72
2021/05/25 11:25:16;;;;;;;5.65;0.70;;;;;;;;;;4992404;28;20105;-71
2021/05/25 11:27:46;;;;;;;6.07;1.10;;;;;;;;;;4991448;28;20037;-71
2021/05/25 11:30:23;;;;;;;3.60;0.50;;;;;;;;;;4992696;28;20030;-71
2021/05/25 11:32:52;;;;;;;4.05;1.20;;;;;;;;;;4992485;28;20027;-72
2021/05/25 11:35:23;;;;;;;2.00;0.80;;;;;;;;;;4975216;28;20487;-72
2021/05/25 11:37:53;;;;;;;4.72;1.45;;;;;;;;;;4992553;28;20530;-71
2021/05/25 11:40:22;;;;;;;4.10;0.80;;;;;;;;;;4992135;28;20353;-71
2021/05/25 11:42:50;;;;;;;4.65;0.85;;;;;;;;;;4991738;28;20026;-71
2021/05/25 11:45:19;;;;;;;3.50;0.47;;;;;;;;;;4991832;28;20357;-71
2021/05/25 11:47:52;;;;;;;2.78;0.43;;;;;;;;;;4992350;28;20014;-71
2021/05/25 11:50:20;;;;;;;3.07;0.67;;;;;;;;;;4992036;28;20033;-71
2021/05/25 11:52:51;;;;;;;4.95;0.50;;;;;;;;;;4975276;28;20459;-71
2021/05/25 11:55:19;;;;;;;3.00;0.80;;;;;;;;;;4992007;28;20029;-71
2021/05/25 11:57:50;;;;;;;3.15;0.68;;;;;;;;;;4991744;28;20081;-71
2021/05/25 12:00:27;;;;;;;3.35;1.52;;;;;;;;;;4974103;28;20029;-71
2021/05/25 12:02:58;;;;;;;3.28;0.75;;;;;;;;;;4986879;28;20113;-71
2021/05/25 12:05:26;;;;;;;2.00;0.50;;;;;;;;;;4990745;28;20018;-71
2021/05/25 12:07:55;;;;;;;5.05;0.80;;;;;;;;;;4987583;28;20080;-71
2021/05/25 12:10:23;;;;;;;4.82;1.20;;;;;;;;;;4981473;28;20084;-71
2021/05/25 12:12:51;;;;;;;2.83;0.50;;;;;;;;;;4971829;28;20042;-72
2021/05/25 12:15:20;;;;;;;2.25;0.70;;;;;;;;;;4982665;28;20018;-71
2021/05/25 12:17:49;;;;;;;3.75;0.93;;;;;;;;;;4989046;28;20022;-71
2021/05/25 12:20:18;;;;;;;1.85;0.50;;;;;;;;;;4990963;28;20026;-73
2021/05/25 12:22:47;;;;;;;4.80;0.50;;;;;;;;;;4990875;28;20536;-72
2021/05/25 12:25:18;;;;;;;2.75;1.02;;;;;;;;;;4990277;28;20042;-72
2021/05/25 12:27:45;;;;;;;1.08;0.45;;;;;;;;;;4987960;28;20391;-72
2021/05/25 12:30:15;;;;;;;1.73;0.40;;;;;;;;;;4990924;28;20027;-72
2021/05/25 12:32:42;;;;;;;4.20;0.60;;;;;;;;;;4993645;28;20463;-72
2021/05/25 12:35:10;;;;;;;2.97;0.45;;;;;;;;;;4995596;28;20438;-72
2021/05/25 12:37:37;;;;;;;3.22;0.50;;;;;;;;;;4993138;28;20129;-72
2021/05/25 12:40:06;;;;;;;2.53;0.45;;;;;;;;;;4995544;28;20026;-72
2021/05/25 12:42:35;;;;;;;3.30;0.50;;;;;;;;;;4993047;28;20062;-72
2021/05/25 12:45:09;;;;;;;2.63;0.80;;;;;;;;;;4995034;28;20105;-72
2021/05/25 12:47:35;;;;;;;;;;;;;;;;;;4993844;28;20105;-72
2021/05/25 12:50:06;;;;;;;1.83;0.40;;;;;;;;;;4993946;28;20345;-72
2021/05/25 12:52:33;;;;;;;2.80;0.40;;;;;;;;;;4990907;28;20487;-72
2021/05/25 12:55:01;;;;;;;2.72;0.63;;;;;;;;;;4994603;28;20514;-72
2021/05/25 12:57:46;;;;;;;2.78;0.47;;;;;;;;;;4993693;28;20459;-72
2021/05/25 13:00:14;;;;;;;0.77;0.30;;;;;;;;;;4994638;28;20026;-72
2021/05/25 13:02:43;;;;;;;2.40;0.40;;;;;;;;;;4991655;28;20047;-72
2021/05/25 13:05:12;;;;;;;2.75;0.40;;;;;;;;;;4994605;28;20088;-72
2021/05/25 13:07:47;;;;;;;4.28;1.25;;;;;;;;;;4989309;28;20029;-72
2021/05/25 13:10:23;;;;;;;2.25;0.50;;;;;;;;;;4993112;28;20387;-72
2021/05/25 13:12:50;;;;;;;3.20;0.50;;;;;;;;;;4991573;28;20034;-72
2021/05/25 13:15:17;;;;;;;2.35;0.60;;;;;;;;;;4975839;28;20037;-72
2021/05/25 13:17:54;;;;;;;1.08;0.30;;;;;;;;;;4993179;28;20016;-72
2021/05/25 13:20:27;;;;;;;3.22;0.38;;;;;;;;;;4994394;28;20092;-72
2021/05/25 13:22:55;;;;;;;1.85;0.85;;;;;;;;;;4991718;28;20054;-73
2021/05/25 13:25:32;;;;;;;2.25;0.60;;;;;;;;;;4993888;28;20022;-73
2021/05/25 13:27:59;;;;;;;2.00;0.30;;;;;;;;;;4992281;28;20026;-73
2021/05/25 13:30:33;;;;;;;2.65;0.30;;;;;;;;;;4994378;28;20504;-72
2021/05/25 13:33:03;;;;;;;1.58;0.30;;;;;;;;;;4991711;28;20018;-72
2021/05/25 13:35:30;;;;;;;1.35;0.38;;;;;;;;;;4976460;28;20038;-72
2021/05/25 13:37:57;;;;;;;2.33;0.35;;;;;;;;;;4990781;28;20134;-72
2021/05/25 13:40:24;;;;;;;2.55;0.38;;;;;;;;;;4994211;28;20432;-72
2021/05/25 13:42:51;;;;;;;2.72;0.43;;;;;;;;;;4992369;28;20022;-72
2021/05/25 13:45:19;;;;;;;3.67;0.60;;;;;;;;;;4992653;28;20080;-73
2021/05/25 13:47:46;;;;;;;3.35;0.30;;;;;;;;;;4973478;28;20039;-73
2021/05/25 13:50:23;;;;;;;3.00;0.47;;;;;;;;;;4993465;28;20049;-73
2021/05/25 13:52:51;;;;;;;2.47;0.35;;;;;;;;;;4990790;28;20033;-72
2021/05/25 13:55:20;;;;;;;1.67;0.50;;;;;;;;;;4993162;28;20014;-73
2021/05/25 13:57:48;;;;;;;3.03;0.30;;;;;;;;;;4992229;28;20030;-72
2021/05/25 14:00:19;;;;;;;0.47;0.20;;;;;;;;;;4992897;28;20470;-72
2021/05/25 14:02:47;;;;;;;2.95;0.40;;;;;;;;;;4982674;28;20033;-73
2021/05/25 14:05:14;;;;;;;1.33;0.20;;;;;;;;;;4988568;28;20026;-73
2021/05/25 14:07:45;;;;;;;1.77;0.30;;;;;;;;;;4974442;28;20542;-73
2021/05/25 14:10:13;;;;;;;1.58;0.28;;;;;;;;;;4991995;28;20014;-72
2021/05/25 14:12:40;;;;;;;3.80;0.70;;;;;;;;;;4990818;28;20084;-72
2021/05/25 14:15:07;;;;;;;2.03;0.30;;;;;;;;;;4988762;28;20037;-72
2021/05/25 14:17:34;;;;;;;0.77;0.20;;;;;;;;;;4982537;28;20364;-73
2021/05/25 14:20:02;;;;;;;3.47;0.55;;;;;;;;;;4993682;28;20019;-72
2021/05/25 14:22:29;;;;;;;4.28;0.35;;;;;;;;;;4992198;28;20545;-73
2021/05/25 14:24:56;;;;;;;5.43;0.52;;;;;;;;;;4993151;28;20026;-72
2021/05/25 14:27:23;;;;;;;2.00;0.52;;;;;;;;;;4991815;28;20101;-72
2021/05/25 14:29:50;;;;;;;3.35;0.50;;;;;;;;;;4988197;28;20130;-72
2021/05/25 14:32:18;;;;;;;2.20;0.22;;;;;;;;;;4991268;28;20117;-72
2021/05/25 14:34:45;;;;;;;1.20;0.20;;;;;;;;;;4993114;28;20022;-72
2021/05/25 14:37:12;;;;;;;2.55;0.57;;;;;;;;;;4992107;28;20046;-72
2021/05/25 14:39:39;;;;;;;3.13;0.55;;;;;;;;;;4992803;28;20560;-73
2021/05/25 14:42:06;;;;;;;1.13;0.50;;;;;;;;;;4991193;28;20027;-73
2021/05/25 14:44:34;;;;;;;1.83;0.32;;;;;;;;;;4991485;28;20352;-73
2021/05/25 14:47:01;;;;;;;4.35;0.75;;;;;;;;;;4991616;28;20374;-72
2021/05/25 14:49:29;;;;;;;2.42;0.30;;;;;;;;;;4993381;28;20101;-73
2021/05/25 14:51:56;;;;;;;0.88;0.20;;;;;;;;;;4986746;28;20027;-72
2021/05/25 14:54:23;;;;;;;3.58;0.35;;;;;;;;;;4991726;28;20049;-73
2021/05/25 14:56:56;;;;;;;2.95;0.40;;;;;;;;;;4987822;28;20496;-73
2021/05/25 14:59:24;;;;;;;0.85;0.28;;;;;;;;;;4993093;28;20109;-73